sensor_id;sensor_type;location;lat;lon;timestamp;pressure;altitude;pressure_sealevel;temperature;humidity
6349;BME280;3207;42.648;23.406;2023-02-12T00:01:00;101558.56;;;4.57;nan
6349;BME280;3207;42.648;23.406;2023-02-12T00:03:27;101558.72;;;4.51;nan
6349;BME280;3207;42.648;23.406;2023-02-12T00:05:59;101575.03;;;4.55;nan
6349;BME280;3207;42.648;23.406;2023-02-12T00:08:26;101567.41;;;4.49;nan
6349;BME280;3207;42.648;23.406;2023-02-12T00:10:53;101570.03;;;4.46;nan
6349;BME280;3207;42.648;23.406;2023-02-12T00:13:19;101573.56;;;4.43;nan
6349;BME280;3207;42.648;23.406;2023-02-12T00:15:46;101577.03;;;4.44;nan
6349;BME280;3207;42.648;23.406;2023-02-12T00:18:13;101573.66;;;4.38;nan
6349;BME280;3207;42.648;23.406;2023-02-12T00:20:40;101575.41;;;4.38;nan
6349;BME280;3207;42.648;23.406;2023-02-12T00:23:09;101575.44;;;4.36;nan
6349;BME280;3207;42.648;23.406;2023-02-12T00:25:40;101582.66;;;4.22;nan
6349;BME280;3207;42.648;23.406;2023-02-12T00:28:07;101580.78;;;4.29;nan
6349;BME280;3207;42.648;23.406;2023-02-12T00:30:34;101572.22;;;4.25;nan
6349;BME280;3207;42.648;23.406;2023-02-12T00:33:01;101579.03;;;4.29;nan
6349;BME280;3207;42.648;23.406;2023-02-12T00:35:28;101580.81;;;4.27;nan
6349;BME280;3207;42.648;23.406;2023-02-12T00:37:54;101589.44;;;4.26;nan
6349;BME280;3207;42.648;23.406;2023-02-12T00:40:23;101592.03;;;4.26;nan
6349;BME280;3207;42.648;23.406;2023-02-12T00:42:49;101586.09;;;4.23;nan
6349;BME280;3207;42.648;23.406;2023-02-12T00:45:16;101598.97;;;4.24;nan
6349;BME280;3207;42.648;23.406;2023-02-12T00:47:43;101597.25;;;4.25;nan
6349;BME280;3207;42.648;23.406;2023-02-12T00:50:10;101588.53;;;4.29;nan
6349;BME280;3207;42.648;23.406;2023-02-12T00:52:37;101596.22;;;4.33;nan
6349;BME280;3207;42.648;23.406;2023-02-12T00:55:04;101590.09;;;4.36;nan
6349;BME280;3207;42.648;23.406;2023-02-12T00:57:33;101593.47;;;4.41;nan
6349;BME280;3207;42.648;23.406;2023-02-12T00:59:59;101590.75;;;4.46;nan
6349;BME280;3207;42.648;23.406;2023-02-12T01:02:26;101596.69;;;4.51;nan
6349;BME280;3207;42.648;23.406;2023-02-12T01:04:53;101593.09;;;4.56;nan
6349;BME280;3207;42.648;23.406;2023-02-12T01:07:20;101594.06;;;4.52;nan
6349;BME280;3207;42.648;23.406;2023-02-12T01:09:47;101614.63;;;4.60;nan
6349;BME280;3207;42.648;23.406;2023-02-12T01:12:14;101622.28;;;4.66;nan
6349;BME280;3207;42.648;23.406;2023-02-12T01:14:42;101623.91;;;4.68;nan
6349;BME280;3207;42.648;23.406;2023-02-12T01:17:09;101631.69;;;4.68;nan
6349;BME280;3207;42.648;23.406;2023-02-12T01:19:36;101617.00;;;4.69;nan
6349;BME280;3207;42.648;23.406;2023-02-12T01:22:03;101616.13;;;4.70;nan
6349;BME280;3207;42.648;23.406;2023-02-12T01:24:30;101618.69;;;4.71;nan
6349;BME280;3207;42.648;23.406;2023-02-12T01:26:56;101610.91;;;4.71;nan
6349;BME280;3207;42.648;23.406;2023-02-12T01:29:23;101605.75;;;4.70;nan
6349;BME280;3207;42.648;23.406;2023-02-12T01:31:51;101607.41;;;4.74;nan
6349;BME280;3207;42.648;23.406;2023-02-12T01:34:18;101604.88;;;4.71;nan
6349;BME280;3207;42.648;23.406;2023-02-12T01:36:45;101604.03;;;4.69;nan
6349;BME280;3207;42.648;23.406;2023-02-12T01:39:12;101601.47;;;4.67;nan
6349;BME280;3207;42.648;23.406;2023-02-12T01:41:41;101607.63;;;4.65;nan
6349;BME280;3207;42.648;23.406;2023-02-12T01:44:12;101619.00;;;4.56;nan
6349;BME280;3207;42.648;23.406;2023-02-12T01:46:40;101621.50;;;4.61;nan
6349;BME280;3207;42.648;23.406;2023-02-12T01:49:13;101623.22;;;4.62;nan
6349;BME280;3207;42.648;23.406;2023-02-12T01:51:43;101603.47;;;4.56;nan
6349;BME280;3207;42.648;23.406;2023-02-12T01:54:12;101595.66;;;4.58;nan
6349;BME280;3207;42.648;23.406;2023-02-12T01:56:41;101595.88;;;4.49;nan
6349;BME280;3207;42.648;23.406;2023-02-12T01:59:09;101597.59;;;4.50;nan
6349;BME280;3207;42.648;23.406;2023-02-12T02:01:37;101593.16;;;4.55;nan
6349;BME280;3207;42.648;23.406;2023-02-12T02:04:07;101600.94;;;4.55;nan
6349;BME280;3207;42.648;23.406;2023-02-12T02:06:41;101610.38;;;4.56;nan
6349;BME280;3207;42.648;23.406;2023-02-12T02:09:09;101619.75;;;4.61;nan
6349;BME280;3207;42.648;23.406;2023-02-12T02:11:37;101609.19;;;4.70;nan
6349;BME280;3207;42.648;23.406;2023-02-12T02:14:20;101608.25;;;4.74;nan
6349;BME280;3207;42.648;23.406;2023-02-12T02:17:23;101601.38;;;4.73;nan
6349;BME280;3207;42.648;23.406;2023-02-12T02:23:08;101605.56;;;4.77;nan
6349;BME280;3207;42.648;23.406;2023-02-12T02:26:00;101612.47;;;4.77;nan
6349;BME280;3207;42.648;23.406;2023-02-12T02:29:03;101594.34;;;4.77;nan
6349;BME280;3207;42.648;23.406;2023-02-12T02:31:41;101598.59;;;4.81;nan
6349;BME280;3207;42.648;23.406;2023-02-12T02:34:12;101596.75;;;4.86;nan
6349;BME280;3207;42.648;23.406;2023-02-12T02:36:45;101595.94;;;4.84;nan
6349;BME280;3207;42.648;23.406;2023-02-12T02:39:15;101598.47;;;4.87;nan
6349;BME280;3207;42.648;23.406;2023-02-12T02:41:47;101605.41;;;4.85;nan
6349;BME280;3207;42.648;23.406;2023-02-12T02:44:21;101613.25;;;4.82;nan
6349;BME280;3207;42.648;23.406;2023-02-12T02:46:52;101617.59;;;4.80;nan
6349;BME280;3207;42.648;23.406;2023-02-12T02:49:22;101619.25;;;4.84;nan
6349;BME280;3207;42.648;23.406;2023-02-12T02:51:52;101619.09;;;4.90;nan
6349;BME280;3207;42.648;23.406;2023-02-12T02:54:25;101618.28;;;4.88;nan
6349;BME280;3207;42.648;23.406;2023-02-12T02:56:57;101605.47;;;4.82;nan
6349;BME280;3207;42.648;23.406;2023-02-12T02:59:28;101607.31;;;4.77;nan
6349;BME280;3207;42.648;23.406;2023-02-12T03:02:02;101617.59;;;4.80;nan
6349;BME280;3207;42.648;23.406;2023-02-12T03:04:34;101619.31;;;4.81;nan
6349;BME280;3207;42.648;23.406;2023-02-12T03:07:07;101615.75;;;4.87;nan
6349;BME280;3207;42.648;23.406;2023-02-12T03:09:38;101606.25;;;4.86;nan
6349;BME280;3207;42.648;23.406;2023-02-12T03:12:11;101627.72;;;4.91;nan
6349;BME280;3207;42.648;23.406;2023-02-12T03:14:43;101631.09;;;4.94;nan
6349;BME280;3207;42.648;23.406;2023-02-12T03:17:15;101640.63;;;4.94;nan
6349;BME280;3207;42.648;23.406;2023-02-12T03:19:45;101643.25;;;4.92;nan
6349;BME280;3207;42.648;23.406;2023-02-12T03:22:15;101643.25;;;4.92;nan
6349;BME280;3207;42.648;23.406;2023-02-12T03:24:45;101641.47;;;4.94;nan
6349;BME280;3207;42.648;23.406;2023-02-12T03:27:18;101634.56;;;4.93;nan
6349;BME280;3207;42.648;23.406;2023-02-12T03:29:45;101625.13;;;4.91;nan
6349;BME280;3207;42.648;23.406;2023-02-12T03:32:23;101621.63;;;4.93;nan
6349;BME280;3207;42.648;23.406;2023-02-12T03:35:01;101621.59;;;4.95;nan
6349;BME280;3207;42.648;23.406;2023-02-12T03:37:34;101623.22;;;4.99;nan
6349;BME280;3207;42.648;23.406;2023-02-12T03:40:11;101629.25;;;4.99;nan
6349;BME280;3207;42.648;23.406;2023-02-12T03:42:45;101637.91;;;4.98;nan
6349;BME280;3207;42.648;23.406;2023-02-12T03:45:19;101647.38;;;4.99;nan
6349;BME280;3207;42.648;23.406;2023-02-12T03:47:57;101648.25;;;4.98;nan
6349;BME280;3207;42.648;23.406;2023-02-12T03:50:32;101662.13;;;4.97;nan
6349;BME280;3207;42.648;23.406;2023-02-12T03:53:00;101647.47;;;4.96;nan
6349;BME280;3207;42.648;23.406;2023-02-12T03:55:29;101645.63;;;5.00;nan
6349;BME280;3207;42.648;23.406;2023-02-12T03:58:00;101625.84;;;4.97;nan
6349;BME280;3207;42.648;23.406;2023-02-12T04:00:29;101637.72;;;5.07;nan
6349;BME280;3207;42.648;23.406;2023-02-12T04:02:57;101636.81;;;5.08;nan
6349;BME280;3207;42.648;23.406;2023-02-12T04:05:26;101644.72;;;5.02;nan
6349;BME280;3207;42.648;23.406;2023-02-12T04:07:54;101643.88;;;5.02;nan
6349;BME280;3207;42.648;23.406;2023-02-12T04:10:28;101644.88;;;4.96;nan
6349;BME280;3207;42.648;23.406;2023-02-12T04:13:05;101650.16;;;4.92;nan
6349;BME280;3207;42.648;23.406;2023-02-12T04:15:44;101652.56;;;4.99;nan
6349;BME280;3207;42.648;23.406;2023-02-12T04:18:19;101664.47;;;5.08;nan
6349;BME280;3207;42.648;23.406;2023-02-12T04:20:53;101663.53;;;5.10;nan
6349;BME280;3207;42.648;23.406;2023-02-12T04:23:37;101624.25;;;4.92;nan
6349;BME280;3207;42.648;23.406;2023-02-12T04:26:09;101660.00;;;5.14;nan
6349;BME280;3207;42.648;23.406;2023-02-12T04:28:46;101654.81;;;5.14;nan
6349;BME280;3207;42.648;23.406;2023-02-12T04:31:21;101659.16;;;5.12;nan
6349;BME280;3207;42.648;23.406;2023-02-12T04:33:57;101657.06;;;4.91;nan
6349;BME280;3207;42.648;23.406;2023-02-12T04:36:30;101660.75;;;4.81;nan
6349;BME280;3207;42.648;23.406;2023-02-12T04:39:01;101662.38;;;4.87;nan
6349;BME280;3207;42.648;23.406;2023-02-12T04:41:30;101679.00;;;4.76;nan
6349;BME280;3207;42.648;23.406;2023-02-12T04:43:57;101680.91;;;4.68;nan
6349;BME280;3207;42.648;23.406;2023-02-12T04:46:24;101676.47;;;4.73;nan
6349;BME280;3207;42.648;23.406;2023-02-12T04:48:54;101681.75;;;4.69;nan
6349;BME280;3207;42.648;23.406;2023-02-12T04:51:21;101686.91;;;4.70;nan
6349;BME280;3207;42.648;23.406;2023-02-12T04:53:48;101695.59;;;4.66;nan
6349;BME280;3207;42.648;23.406;2023-02-12T04:56:16;101695.47;;;4.74;nan
6349;BME280;3207;42.648;23.406;2023-02-12T04:58:43;101712.72;;;4.75;nan
6349;BME280;3207;42.648;23.406;2023-02-12T05:01:10;101724.84;;;4.73;nan
6349;BME280;3207;42.648;23.406;2023-02-12T05:03:37;101726.59;;;4.72;nan
6349;BME280;3207;42.648;23.406;2023-02-12T05:06:06;101736.91;;;4.74;nan
6349;BME280;3207;42.648;23.406;2023-02-12T05:08:34;101745.44;;;4.79;nan
6349;BME280;3207;42.648;23.406;2023-02-12T05:11:04;101738.47;;;4.81;nan
6349;BME280;3207;42.648;23.406;2023-02-12T05:13:32;101746.19;;;4.84;nan
6349;BME280;3207;42.648;23.406;2023-02-12T05:15:59;101752.47;;;4.74;nan
6349;BME280;3207;42.648;23.406;2023-02-12T05:18:27;101761.72;;;4.86;nan
6349;BME280;3207;42.648;23.406;2023-02-12T05:20:55;101753.81;;;4.90;nan
6349;BME280;3207;42.648;23.406;2023-02-12T05:23:24;101761.63;;;4.89;nan
6349;BME280;3207;42.648;23.406;2023-02-12T05:25:51;101755.94;;;4.73;nan
6349;BME280;3207;42.648;23.406;2023-02-12T05:28:18;101761.06;;;4.76;nan
6349;BME280;3207;42.648;23.406;2023-02-12T05:30:45;101767.88;;;4.78;nan
6349;BME280;3207;42.648;23.406;2023-02-12T05:33:12;101754.22;;;4.72;nan
6349;BME280;3207;42.648;23.406;2023-02-12T05:35:38;101757.63;;;4.74;nan
6349;BME280;3207;42.648;23.406;2023-02-12T05:38:05;101767.16;;;4.72;nan
6349;BME280;3207;42.648;23.406;2023-02-12T05:40:34;101775.00;;;4.69;nan
6349;BME280;3207;42.648;23.406;2023-02-12T05:43:01;101761.16;;;4.70;nan
6349;BME280;3207;42.648;23.406;2023-02-12T05:45:28;101751.81;;;4.63;nan
6349;BME280;3207;42.648;23.406;2023-02-12T05:47:55;101775.00;;;4.69;nan
6349;BME280;3207;42.648;23.406;2023-02-12T05:50:22;101789.69;;;4.68;nan
6349;BME280;3207;42.648;23.406;2023-02-12T05:52:49;101777.66;;;4.66;nan
6349;BME280;3207;42.648;23.406;2023-02-12T05:55:16;101769.81;;;4.69;nan
6349;BME280;3207;42.648;23.406;2023-02-12T05:57:44;101781.78;;;4.76;nan
6349;BME280;3207;42.648;23.406;2023-02-12T06:00:12;101769.16;;;4.59;nan
6349;BME280;3207;42.648;23.406;2023-02-12T06:02:39;101782.19;;;4.55;nan
6349;BME280;3207;42.648;23.406;2023-02-12T06:05:06;101783.97;;;4.53;nan
6349;BME280;3207;42.648;23.406;2023-02-12T06:07:33;101779.81;;;4.44;nan
6349;BME280;3207;42.648;23.406;2023-02-12T06:10:00;101780.66;;;4.45;nan
6349;BME280;3207;42.648;23.406;2023-02-12T06:12:27;101788.50;;;4.41;nan
6349;BME280;3207;42.648;23.406;2023-02-12T06:14:55;101794.44;;;4.45;nan
6349;BME280;3207;42.648;23.406;2023-02-12T06:17:22;101786.66;;;4.47;nan
6349;BME280;3207;42.648;23.406;2023-02-12T06:19:49;101784.22;;;4.37;nan
6349;BME280;3207;42.648;23.406;2023-02-12T06:22:16;101781.78;;;4.30;nan
6349;BME280;3207;42.648;23.406;2023-02-12T06:24:42;101793.81;;;4.34;nan
6349;BME280;3207;42.648;23.406;2023-02-12T06:27:09;101791.97;;;4.39;nan
6349;BME280;3207;42.648;23.406;2023-02-12T06:29:36;101808.50;;;4.33;nan
6349;BME280;3207;42.648;23.406;2023-02-12T06:32:04;101810.13;;;4.37;nan
6349;BME280;3207;42.648;23.406;2023-02-12T06:34:32;101803.31;;;4.33;nan
6349;BME280;3207;42.648;23.406;2023-02-12T06:36:59;101778.31;;;4.31;nan
6349;BME280;3207;42.648;23.406;2023-02-12T06:39:26;101810.03;;;4.44;nan
6349;BME280;3207;42.648;23.406;2023-02-12T06:41:53;101817.66;;;4.50;nan
6349;BME280;3207;42.648;23.406;2023-02-12T06:44:20;101817.66;;;4.51;nan
6349;BME280;3207;42.648;23.406;2023-02-12T06:46:47;101814.91;;;4.59;nan
6349;BME280;3207;42.648;23.406;2023-02-12T06:49:15;101826.13;;;4.59;nan
6349;BME280;3207;42.648;23.406;2023-02-12T06:51:42;101824.38;;;4.61;nan
6349;BME280;3207;42.648;23.406;2023-02-12T06:54:12;101825.09;;;4.68;nan
6349;BME280;3207;42.648;23.406;2023-02-12T06:56:39;101836.19;;;4.74;nan
6349;BME280;3207;42.648;23.406;2023-02-12T06:59:06;101847.31;;;4.79;nan
6349;BME280;3207;42.648;23.406;2023-02-12T07:01:32;101855.00;;;4.84;nan
6349;BME280;3207;42.648;23.406;2023-02-12T07:04:00;101841.00;;;4.94;nan
6349;BME280;3207;42.648;23.406;2023-02-12T07:06:31;101850.38;;;5.00;nan
6349;BME280;3207;42.648;23.406;2023-02-12T07:08:58;101847.50;;;5.13;nan
6349;BME280;3207;42.648;23.406;2023-02-12T07:11:27;101850.03;;;5.17;nan
6349;BME280;3207;42.648;23.406;2023-02-12T07:13:55;101851.78;;;5.16;nan
6349;BME280;3207;42.648;23.406;2023-02-12T07:16:22;101863.03;;;5.15;nan
6349;BME280;3207;42.648;23.406;2023-02-12T07:18:49;101856.84;;;5.21;nan
6349;BME280;3207;42.648;23.406;2023-02-12T07:21:15;101865.47;;;5.21;nan
6349;BME280;3207;42.648;23.406;2023-02-12T07:23:47;101867.16;;;5.24;nan
6349;BME280;3207;42.648;23.406;2023-02-12T07:26:14;101864.50;;;5.28;nan
6349;BME280;3207;42.648;23.406;2023-02-12T07:28:41;101863.53;;;5.32;nan
6349;BME280;3207;42.648;23.406;2023-02-12T07:31:10;101883.44;;;5.30;nan
6349;BME280;3207;42.648;23.406;2023-02-12T07:33:38;101881.59;;;5.37;nan
6349;BME280;3207;42.648;23.406;2023-02-12T07:36:07;101895.50;;;5.33;nan
6349;BME280;3207;42.648;23.406;2023-02-12T07:38:34;101883.41;;;5.32;nan
6349;BME280;3207;42.648;23.406;2023-02-12T07:41:12;101882.69;;;5.25;nan
6349;BME280;3207;42.648;23.406;2023-02-12T07:43:40;101899.13;;;5.24;nan
6349;BME280;3207;42.648;23.406;2023-02-12T07:46:09;101908.66;;;5.24;nan
6349;BME280;3207;42.648;23.406;2023-02-12T07:48:36;101894.75;;;5.28;nan
6349;BME280;3207;42.648;23.406;2023-02-12T07:51:05;101893.91;;;5.26;nan
6349;BME280;3207;42.648;23.406;2023-02-12T07:53:32;101904.97;;;5.35;nan
6349;BME280;3207;42.648;23.406;2023-02-12T07:56:07;101907.34;;;5.44;nan
6349;BME280;3207;42.648;23.406;2023-02-12T07:58:35;101905.44;;;5.52;nan
6349;BME280;3207;42.648;23.406;2023-02-12T08:01:11;101901.19;;;5.50;nan
6349;BME280;3207;42.648;23.406;2023-02-12T08:03:38;101898.25;;;5.65;nan
6349;BME280;3207;42.648;23.406;2023-02-12T08:06:09;101861.47;;;5.48;nan
6349;BME280;3207;42.648;23.406;2023-02-12T08:08:37;101894.47;;;5.80;nan
6349;BME280;3207;42.648;23.406;2023-02-12T08:11:05;101886.66;;;5.81;nan
6349;BME280;3207;42.648;23.406;2023-02-12T08:13:32;101893.28;;;5.95;nan
6349;BME280;3207;42.648;23.406;2023-02-12T08:16:01;101897.38;;;6.05;nan
6349;BME280;3207;42.648;23.406;2023-02-12T08:18:29;101902.28;;;6.17;nan
6349;BME280;3207;42.648;23.406;2023-02-12T08:21:00;101907.25;;;6.26;nan
6349;BME280;3207;42.648;23.406;2023-02-12T08:23:28;101921.81;;;6.33;nan
6349;BME280;3207;42.648;23.406;2023-02-12T08:25:54;101914.47;;;6.49;nan
6349;BME280;3207;42.648;23.406;2023-02-12T08:28:29;101912.50;;;6.58;nan
6349;BME280;3207;42.648;23.406;2023-02-12T08:31:00;101911.47;;;6.66;nan
6349;BME280;3207;42.648;23.406;2023-02-12T08:33:27;101908.63;;;6.75;nan
6349;BME280;3207;42.648;23.406;2023-02-12T08:36:00;101908.31;;;6.87;nan
6349;BME280;3207;42.648;23.406;2023-02-12T08:38:27;101925.91;;;7.10;nan
6349;BME280;3207;42.648;23.406;2023-02-12T08:40:54;101937.56;;;7.26;nan
6349;BME280;3207;42.648;23.406;2023-02-12T08:43:21;101952.31;;;7.84;nan
6349;BME280;3207;42.648;23.406;2023-02-12T08:45:48;101946.75;;;8.78;nan
6349;BME280;3207;42.648;23.406;2023-02-12T08:48:16;101960.28;;;9.38;nan
6349;BME280;3207;42.648;23.406;2023-02-12T08:50:45;101935.69;;;9.67;nan
6349;BME280;3207;42.648;23.406;2023-02-12T08:53:12;101915.84;;;9.63;nan
6349;BME280;3207;42.648;23.406;2023-02-12T08:55:38;101938.50;;;9.62;nan
6349;BME280;3207;42.648;23.406;2023-02-12T08:58:05;101927.31;;;9.59;nan
6349;BME280;3207;42.648;23.406;2023-02-12T09:00:32;101927.06;;;9.65;nan
6349;BME280;3207;42.648;23.406;2023-02-12T09:02:59;101932.72;;;9.76;nan
6349;BME280;3207;42.648;23.406;2023-02-12T09:05:27;101950.69;;;9.85;nan
6349;BME280;3207;42.648;23.406;2023-02-12T09:07:54;101955.56;;;10.16;nan
6349;BME280;3207;42.648;23.406;2023-02-12T09:10:20;101963.50;;;10.98;nan
6349;BME280;3207;42.648;23.406;2023-02-12T09:12:47;101968.72;;;11.77;nan
6349;BME280;3207;42.648;23.406;2023-02-12T09:15:14;101962.22;;;13.90;nan
6349;BME280;3207;42.648;23.406;2023-02-12T09:17:41;101965.09;;;16.33;nan
6349;BME280;3207;42.648;23.406;2023-02-12T09:20:08;101970.00;;;18.64;nan
6349;BME280;3207;42.648;23.406;2023-02-12T09:22:37;101979.72;;;21.67;nan
6349;BME280;3207;42.648;23.406;2023-02-12T09:25:04;101977.34;;;22.23;nan
6349;BME280;3207;42.648;23.406;2023-02-12T09:27:31;101986.34;;;24.90;nan
6349;BME280;3207;42.648;23.406;2023-02-12T09:29:58;101997.03;;;27.39;nan
6349;BME280;3207;42.648;23.406;2023-02-12T09:32:25;102004.47;;;28.61;nan
6349;BME280;3207;42.648;23.406;2023-02-12T09:34:52;102002.97;;;29.48;nan
6349;BME280;3207;42.648;23.406;2023-02-12T09:37:19;102001.53;;;31.31;nan
6349;BME280;3207;42.648;23.406;2023-02-12T09:39:47;102006.38;;;32.77;nan
6349;BME280;3207;42.648;23.406;2023-02-12T09:42:22;102017.50;;;34.48;nan
6349;BME280;3207;42.648;23.406;2023-02-12T09:44:58;102016.91;;;36.06;nan
6349;BME280;3207;42.648;23.406;2023-02-12T09:47:32;102014.97;;;37.36;nan
6349;BME280;3207;42.648;23.406;2023-02-12T09:50:33;102025.94;;;37.64;nan
6349;BME280;3207;42.648;23.406;2023-02-12T09:53:03;102022.00;;;38.12;nan
6349;BME280;3207;42.648;23.406;2023-02-12T09:55:33;102028.66;;;38.50;nan
6349;BME280;3207;42.648;23.406;2023-02-12T09:58:02;102031.22;;;39.45;nan
6349;BME280;3207;42.648;23.406;2023-02-12T10:00:30;102032.72;;;40.28;nan
6349;BME280;3207;42.648;23.406;2023-02-12T10:03:01;102029.47;;;41.00;nan
6349;BME280;3207;42.648;23.406;2023-02-12T10:05:31;102038.81;;;41.51;nan
6349;BME280;3207;42.648;23.406;2023-02-12T10:08:27;102035.41;;;41.96;nan
6349;BME280;3207;42.648;23.406;2023-02-12T10:11:09;102029.97;;;42.17;nan
6349;BME280;3207;42.648;23.406;2023-02-12T10:13:44;102039.84;;;42.28;nan
6349;BME280;3207;42.648;23.406;2023-02-12T10:16:25;102033.56;;;41.40;nan
6349;BME280;3207;42.648;23.406;2023-02-12T10:19:13;102039.66;;;41.05;nan
6349;BME280;3207;42.648;23.406;2023-02-12T10:21:53;102042.56;;;41.30;nan
6349;BME280;3207;42.648;23.406;2023-02-12T10:24:40;102035.19;;;41.41;nan
6349;BME280;3207;42.648;23.406;2023-02-12T10:27:15;102037.28;;;40.76;nan
6349;BME280;3207;42.648;23.406;2023-02-12T10:29:44;102035.72;;;40.58;nan
6349;BME280;3207;42.648;23.406;2023-02-12T10:32:20;102038.03;;;41.09;nan
6349;BME280;3207;42.648;23.406;2023-02-12T10:34:50;102026.00;;;41.72;nan
6349;BME280;3207;42.648;23.406;2023-02-12T10:37:24;102025.13;;;37.64;nan
6349;BME280;3207;42.648;23.406;2023-02-12T10:39:56;102015.38;;;37.56;nan
6349;BME280;3207;42.648;23.406;2023-02-12T10:42:35;102011.38;;;36.65;nan
6349;BME280;3207;42.648;23.406;2023-02-12T10:45:04;102002.88;;;36.74;nan
6349;BME280;3207;42.648;23.406;2023-02-12T10:47:31;102001.22;;;38.28;nan
6349;BME280;3207;42.648;23.406;2023-02-12T10:50:01;101993.00;;;38.78;nan
6349;BME280;3207;42.648;23.406;2023-02-12T10:52:35;101983.81;;;39.66;nan
6349;BME280;3207;42.648;23.406;2023-02-12T10:55:25;101983.22;;;38.82;nan
6349;BME280;3207;42.648;23.406;2023-02-12T10:57:54;101980.63;;;38.92;nan
6349;BME280;3207;42.648;23.406;2023-02-12T11:00:28;101979.00;;;38.07;nan
6349;BME280;3207;42.648;23.406;2023-02-12T11:03:02;101975.25;;;36.70;nan
6349;BME280;3207;42.648;23.406;2023-02-12T11:05:31;101977.81;;;37.35;nan
6349;BME280;3207;42.648;23.406;2023-02-12T11:07:59;101991.66;;;39.14;nan
6349;BME280;3207;42.648;23.406;2023-02-12T11:10:28;101991.09;;;40.31;nan
6349;BME280;3207;42.648;23.406;2023-02-12T11:12:58;101989.09;;;41.01;nan
6349;BME280;3207;42.648;23.406;2023-02-12T11:15:29;101978.34;;;40.20;nan
6349;BME280;3207;42.648;23.406;2023-02-12T11:18:00;101968.91;;;38.41;nan
6349;BME280;3207;42.648;23.406;2023-02-12T11:20:28;101966.53;;;36.26;nan
6349;BME280;3207;42.648;23.406;2023-02-12T11:23:00;101955.22;;;34.47;nan
6349;BME280;3207;42.648;23.406;2023-02-12T11:25:28;101956.56;;;32.78;nan
6349;BME280;3207;42.648;23.406;2023-02-12T11:28:11;101952.34;;;31.55;nan
6349;BME280;3207;42.648;23.406;2023-02-12T11:30:49;101936.88;;;30.03;nan
6349;BME280;3207;42.648;23.406;2023-02-12T11:33:25;101915.72;;;28.30;nan
6349;BME280;3207;42.648;23.406;2023-02-12T11:35:54;101921.63;;;26.77;nan
6349;BME280;3207;42.648;23.406;2023-02-12T11:38:25;101924.94;;;25.48;nan
6349;BME280;3207;42.648;23.406;2023-02-12T11:40:56;101917.34;;;24.32;nan
6349;BME280;3207;42.648;23.406;2023-02-12T11:43:27;101915.97;;;23.38;nan
6349;BME280;3207;42.648;23.406;2023-02-12T11:45:56;101919.00;;;23.15;nan
6349;BME280;3207;42.648;23.406;2023-02-12T11:48:25;101917.78;;;23.64;nan
6349;BME280;3207;42.648;23.406;2023-02-12T11:50:55;101904.78;;;23.79;nan
6349;BME280;3207;42.648;23.406;2023-02-12T11:53:24;101911.38;;;23.20;nan
6349;BME280;3207;42.648;23.406;2023-02-12T11:55:54;101904.97;;;22.28;nan
6349;BME280;3207;42.648;23.406;2023-02-12T11:58:23;101903.44;;;21.47;nan
6349;BME280;3207;42.648;23.406;2023-02-12T12:00:57;101920.34;;;20.85;nan
6349;BME280;3207;42.648;23.406;2023-02-12T12:03:30;101899.09;;;20.12;nan
6349;BME280;3207;42.648;23.406;2023-02-12T12:06:06;101916.22;;;19.53;nan
6349;BME280;3207;42.648;23.406;2023-02-12T12:08:39;101919.81;;;18.85;nan
6349;BME280;3207;42.648;23.406;2023-02-12T12:11:11;101901.34;;;18.38;nan
6349;BME280;3207;42.648;23.406;2023-02-12T12:13:45;101888.13;;;17.53;nan
6349;BME280;3207;42.648;23.406;2023-02-12T12:16:19;101895.50;;;16.87;nan
6349;BME280;3207;42.648;23.406;2023-02-12T12:19:11;101899.22;;;16.44;nan
6349;BME280;3207;42.648;23.406;2023-02-12T12:22:02;101887.31;;;16.39;nan
6349;BME280;3207;42.648;23.406;2023-02-12T12:24:37;101888.97;;;16.27;nan
6349;BME280;3207;42.648;23.406;2023-02-12T12:27:13;101891.75;;;16.11;nan
6349;BME280;3207;42.648;23.406;2023-02-12T12:30:10;101885.09;;;15.79;nan
6349;BME280;3207;42.648;23.406;2023-02-12T12:32:44;101881.66;;;15.64;nan
6349;BME280;3207;42.648;23.406;2023-02-12T12:35:15;101882.25;;;15.55;nan
6349;BME280;3207;42.648;23.406;2023-02-12T12:37:46;101894.38;;;15.44;nan
6349;BME280;3207;42.648;23.406;2023-02-12T12:40:28;101889.19;;;15.42;nan
6349;BME280;3207;42.648;23.406;2023-02-12T12:43:03;101888.94;;;15.32;nan
6349;BME280;3207;42.648;23.406;2023-02-12T12:45:50;101864.59;;;15.15;nan
6349;BME280;3207;42.648;23.406;2023-02-12T12:48:32;101886.19;;;15.20;nan
6349;BME280;3207;42.648;23.406;2023-02-12T12:51:11;101893.06;;;15.08;nan
6349;BME280;3207;42.648;23.406;2023-02-12T12:53:51;101883.84;;;14.87;nan
6349;BME280;3207;42.648;23.406;2023-02-12T12:56:36;101879.91;;;14.80;nan
6349;BME280;3207;42.648;23.406;2023-02-12T12:59:32;101888.91;;;14.76;nan
6349;BME280;3207;42.648;23.406;2023-02-12T13:02:29;101890.22;;;14.69;nan
6349;BME280;3207;42.648;23.406;2023-02-12T13:08:02;101885.31;;;14.62;nan
6349;BME280;3207;42.648;23.406;2023-02-12T13:10:36;101888.31;;;14.56;nan
6349;BME280;3207;42.648;23.406;2023-02-12T13:13:15;101886.31;;;14.46;nan
6349;BME280;3207;42.648;23.406;2023-02-12T13:15:48;101882.06;;;14.43;nan
6349;BME280;3207;42.648;23.406;2023-02-12T13:18:24;101879.66;;;14.54;nan
6349;BME280;3207;42.648;23.406;2023-02-12T13:21:00;101876.69;;;14.60;nan
6349;BME280;3207;42.648;23.406;2023-02-12T13:23:35;101874.78;;;14.62;nan
6349;BME280;3207;42.648;23.406;2023-02-12T13:26:10;101860.97;;;14.59;nan
6349;BME280;3207;42.648;23.406;2023-02-12T13:28:41;101866.03;;;14.62;nan
6349;BME280;3207;42.648;23.406;2023-02-12T13:31:13;101875.16;;;14.56;nan
6349;BME280;3207;42.648;23.406;2023-02-12T13:33:45;101872.06;;;14.34;nan
6349;BME280;3207;42.648;23.406;2023-02-12T13:36:15;101889.91;;;14.29;nan
6349;BME280;3207;42.648;23.406;2023-02-12T13:38:47;101869.34;;;14.06;nan
6349;BME280;3207;42.648;23.406;2023-02-12T13:41:17;101876.28;;;14.07;nan
6349;BME280;3207;42.648;23.406;2023-02-12T13:44:00;101857.31;;;13.86;nan
6349;BME280;3207;42.648;23.406;2023-02-12T13:46:38;101878.75;;;13.94;nan
6349;BME280;3207;42.648;23.406;2023-02-12T13:49:18;101876.31;;;13.91;nan
6349;BME280;3207;42.648;23.406;2023-02-12T13:51:52;101874.03;;;13.85;nan
6349;BME280;3207;42.648;23.406;2023-02-12T13:54:38;101865.75;;;13.77;nan
6349;BME280;3207;42.648;23.406;2023-02-12T13:57:14;101865.97;;;13.72;nan